createdAt,value
2018-07-28T00:00:45.239Z,7.40
2018-07-28T00:03:13.156Z,6.40
2018-07-28T00:05:41.107Z,6.93
2018-07-28T00:08:09.017Z,6.53
2018-07-28T00:10:36.938Z,6.50
2018-07-28T00:13:04.858Z,7.63
2018-07-28T00:15:32.814Z,6.90
2018-07-28T00:18:00.782Z,6.63
2018-07-28T00:20:28.797Z,6.80
2018-07-28T00:22:56.716Z,7.40
2018-07-28T00:25:24.731Z,6.57
2018-07-28T00:27:52.749Z,6.57
2018-07-28T00:30:20.601Z,7.17
2018-07-28T00:32:48.345Z,8.33
2018-07-28T00:35:16.329Z,8.17
2018-07-28T00:37:44.241Z,6.93
2018-07-28T00:40:12.119Z,7.33
2018-07-28T00:42:40.094Z,7.03
2018-07-28T00:45:08.106Z,10.00
2018-07-28T00:47:36.141Z,7.93
2018-07-28T00:50:05.476Z,6.63
2018-07-28T00:52:33.488Z,7.00
2018-07-28T00:55:01.434Z,6.60
2018-07-28T00:57:29.331Z,10.40
2018-07-28T00:59:57.259Z,7.57
2018-07-28T01:02:25.234Z,7.63
2018-07-28T01:04:53.146Z,7.30
2018-07-28T01:07:21.043Z,7.53
2018-07-28T01:09:48.945Z,7.00
2018-07-28T01:12:16.890Z,8.17
2018-07-28T01:14:44.748Z,7.33
2018-07-28T01:17:12.676Z,8.40
2018-07-28T01:19:40.556Z,7.90
2018-07-28T01:22:08.576Z,8.67
2018-07-28T01:24:36.463Z,9.30
2018-07-28T01:27:04.441Z,11.40
2018-07-28T01:29:32.441Z,9.53
2018-07-28T01:32:00.413Z,10.03
2018-07-28T01:34:28.285Z,7.97
2018-07-28T01:36:56.280Z,8.13
2018-07-28T01:39:24.218Z,7.20
2018-07-28T01:41:52.176Z,10.57
2018-07-28T01:44:20.082Z,8.33
2018-07-28T01:46:48.040Z,6.90
2018-07-28T01:49:15.920Z,8.33
2018-07-28T01:51:43.809Z,8.10
2018-07-28T01:54:11.660Z,7.67
2018-07-28T01:56:39.533Z,7.60
2018-07-28T01:59:07.441Z,6.93
2018-07-28T02:01:35.412Z,7.90
2018-07-28T02:04:03.345Z,8.37
2018-07-28T02:06:31.249Z,8.47
2018-07-28T02:08:59.156Z,9.80
2018-07-28T02:11:27.096Z,7.03
2018-07-28T02:13:55.112Z,7.70
2018-07-28T02:16:22.974Z,8.07
2018-07-28T02:18:50.852Z,7.53
2018-07-28T02:21:18.743Z,7.60
2018-07-28T02:23:46.658Z,7.70
2018-07-28T02:26:14.622Z,10.97
2018-07-28T02:28:42.559Z,8.00
2018-07-28T02:31:10.516Z,13.23
2018-07-28T02:33:38.419Z,7.57
2018-07-28T02:36:06.778Z,9.87
2018-07-28T02:38:34.707Z,8.00
2018-07-28T02:41:02.636Z,8.33
2018-07-28T02:43:30.541Z,7.93
2018-07-28T02:45:58.457Z,8.00
2018-07-28T02:48:26.297Z,8.27
2018-07-28T02:50:54.315Z,8.60
2018-07-28T02:53:22.178Z,13.13
2018-07-28T02:55:50.119Z,9.80
2018-07-28T02:58:18.024Z,15.53
2018-07-28T03:00:46.014Z,12.80
2018-07-28T03:03:13.976Z,17.13
2018-07-28T03:05:41.892Z,19.03
2018-07-28T03:08:09.884Z,20.37
2018-07-28T03:10:37.841Z,18.97
2018-07-28T03:13:05.709Z,21.20
2018-07-28T03:15:34.722Z,18.23
2018-07-28T03:18:04.866Z,12.87
2018-07-28T03:20:32.878Z,18.40
2018-07-28T03:23:01.630Z,13.13
2018-07-28T03:25:29.636Z,16.93
2018-07-28T03:27:57.829Z,19.23
2018-07-28T03:30:26.353Z,12.53
2018-07-28T03:32:54.322Z,12.50
2018-07-28T03:35:22.263Z,14.90
2018-07-28T03:37:50.192Z,12.23
2018-07-28T03:40:18.149Z,13.10
2018-07-28T03:42:46.072Z,13.33
2018-07-28T03:45:13.972Z,12.43
2018-07-28T03:47:41.982Z,10.67
2018-07-28T03:50:10.468Z,12.90
2018-07-28T03:52:38.352Z,16.70
2018-07-28T03:55:07.293Z,16.40
2018-07-28T03:57:35.149Z,17.07
2018-07-28T04:00:04.407Z,11.17
2018-07-28T04:02:32.234Z,9.23
2018-07-28T04:05:00.039Z,18.87
2018-07-28T04:07:27.909Z,12.10
2018-07-28T04:09:55.875Z,11.33
2018-07-28T04:12:23.846Z,11.60
2018-07-28T04:14:51.836Z,10.80
2018-07-28T04:17:19.764Z,10.43
2018-07-28T04:19:47.646Z,12.20
2018-07-28T04:22:15.485Z,15.07
2018-07-28T04:24:43.369Z,12.83
2018-07-28T04:27:11.303Z,12.57
2018-07-28T04:29:39.261Z,13.67
2018-07-28T04:32:07.059Z,11.67
2018-07-28T04:34:34.936Z,11.70
2018-07-28T04:37:02.970Z,13.43
2018-07-28T04:39:30.754Z,12.47
2018-07-28T04:41:58.788Z,12.80
2018-07-28T04:44:26.745Z,10.73
2018-07-28T04:46:54.619Z,16.87
2018-07-28T04:49:22.383Z,13.33
2018-07-28T04:51:50.320Z,12.80
2018-07-28T04:54:18.338Z,14.40
2018-07-28T04:56:46.232Z,12.43
2018-07-28T04:59:14.094Z,13.20
2018-07-28T05:01:41.988Z,13.17
2018-07-28T05:04:09.961Z,10.73
2018-07-28T05:06:37.947Z,12.83
2018-07-28T05:09:08.075Z,8.07
2018-07-28T05:11:36.026Z,13.93
2018-07-28T05:14:04.044Z,15.57
2018-07-28T05:16:31.997Z,12.80
2018-07-28T05:18:59.965Z,13.53
2018-07-28T05:21:27.887Z,9.97
2018-07-28T05:23:55.809Z,14.00
2018-07-28T05:26:23.768Z,20.37
2018-07-28T05:28:51.826Z,26.87
2018-07-28T05:31:22.013Z,20.53
2018-07-28T05:33:50.445Z,17.80
2018-07-28T05:36:18.389Z,16.10
2018-07-28T05:38:46.398Z,12.83
2018-07-28T05:41:14.346Z,21.70
2018-07-28T05:43:42.280Z,15.53
2018-07-28T05:46:10.244Z,14.47
2018-07-28T05:48:38.146Z,12.27
2018-07-28T05:51:06.130Z,13.87
2018-07-28T05:53:37.666Z,12.33
2018-07-28T05:56:06.389Z,11.67
2018-07-28T05:58:34.343Z,13.33
2018-07-28T06:01:02.337Z,15.40
2018-07-28T06:03:30.282Z,13.60
2018-07-28T06:05:58.242Z,11.37
2018-07-28T06:08:26.196Z,13.67
2018-07-28T06:10:54.139Z,12.03
2018-07-28T06:13:22.102Z,10.87
2018-07-28T06:15:50.102Z,14.13
2018-07-28T06:18:18.048Z,12.30
2018-07-28T06:20:45.971Z,10.50
2018-07-28T06:23:13.923Z,6.40
2018-07-28T06:25:41.829Z,13.93
2018-07-28T06:28:09.745Z,8.80
2018-07-28T06:30:37.737Z,9.80
2018-07-28T06:33:05.753Z,9.83
2018-07-28T06:35:33.674Z,9.17
2018-07-28T06:38:01.667Z,10.87
2018-07-28T06:40:29.499Z,12.40
2018-07-28T06:42:57.396Z,8.23
2018-07-28T06:45:25.267Z,13.23
2018-07-28T06:47:53.166Z,12.57
2018-07-28T06:50:20.840Z,13.47
2018-07-28T06:52:48.776Z,13.10
2018-07-28T06:55:16.735Z,13.80
2018-07-28T06:57:45.076Z,12.93
2018-07-28T07:00:13.004Z,15.13
2018-07-28T07:02:40.945Z,10.93
2018-07-28T07:05:09.311Z,13.10
2018-07-28T07:07:37.228Z,8.73
2018-07-28T07:10:05.644Z,15.90
2018-07-28T07:12:33.588Z,12.23
2018-07-28T07:15:01.584Z,11.90
2018-07-28T07:17:29.605Z,11.23
2018-07-28T07:19:57.665Z,11.30
2018-07-28T07:22:25.596Z,10.33
2018-07-28T07:24:53.570Z,9.90
2018-07-28T07:27:21.485Z,10.27
2018-07-28T07:29:49.273Z,9.27
2018-07-28T07:32:17.165Z,8.80
2018-07-28T07:34:45.050Z,7.93
2018-07-28T07:37:14.763Z,8.50
2018-07-28T07:39:43.093Z,8.67
2018-07-28T07:42:11.089Z,9.30
2018-07-28T07:44:38.944Z,10.33
2018-07-28T07:47:06.933Z,11.17
2018-07-28T07:49:34.864Z,10.07
2018-07-28T07:52:02.820Z,10.10
2018-07-28T07:54:30.701Z,9.00
2018-07-28T07:56:58.591Z,9.70
2018-07-28T07:59:26.511Z,10.70
2018-07-28T08:01:54.448Z,9.50
2018-07-28T08:04:22.347Z,9.90
2018-07-28T08:06:50.256Z,10.50
2018-07-28T08:09:18.174Z,8.23
2018-07-28T08:11:46.055Z,7.93
2018-07-28T08:14:13.952Z,10.03
2018-07-28T08:16:41.904Z,10.93
2018-07-28T08:19:09.829Z,9.30
2018-07-28T08:21:38.070Z,10.40
2018-07-28T08:24:06.085Z,6.97
2018-07-28T08:26:33.999Z,9.93
2018-07-28T08:29:01.999Z,11.78
2018-07-28T08:31:29.843Z,11.73
2018-07-28T08:33:57.737Z,8.95
2018-07-28T08:36:25.648Z,7.47
2018-07-28T08:38:53.557Z,8.40
2018-07-28T08:41:21.475Z,9.43
2018-07-28T08:43:49.525Z,11.40
2018-07-28T08:46:17.468Z,12.20
2018-07-28T08:48:46.092Z,8.70
2018-07-28T08:51:14.895Z,10.45
2018-07-28T08:53:42.829Z,12.40
2018-07-28T08:56:10.762Z,7.85
2018-07-28T08:58:38.821Z,9.00
2018-07-28T09:01:06.862Z,8.98
2018-07-28T09:03:34.743Z,7.78
2018-07-28T09:06:02.864Z,6.20
2018-07-28T09:08:30.767Z,9.00
2018-07-28T09:10:59.090Z,7.40
2018-07-28T09:13:27.011Z,6.97
2018-07-28T09:15:54.907Z,10.18
2018-07-28T09:18:22.837Z,6.22
2018-07-28T09:20:50.875Z,8.18
2018-07-28T09:23:18.781Z,6.67
2018-07-28T09:25:46.631Z,6.47
2018-07-28T09:28:14.598Z,8.43
2018-07-28T09:30:42.570Z,8.43
2018-07-28T09:33:10.378Z,9.17
2018-07-28T09:35:38.342Z,6.83
2018-07-28T09:38:06.738Z,8.50
2018-07-28T09:40:34.641Z,7.27
2018-07-28T09:43:02.711Z,15.90
2018-07-28T09:45:30.555Z,14.10
2018-07-28T09:47:58.580Z,14.53
2018-07-28T09:50:26.492Z,12.87
2018-07-28T09:52:54.507Z,11.87
2018-07-28T09:55:22.468Z,15.58
2018-07-28T09:57:50.461Z,10.00
2018-07-28T10:00:23.875Z,11.70
2018-07-28T10:02:51.907Z,11.40
2018-07-28T10:05:19.834Z,13.00
2018-07-28T10:07:47.799Z,10.95
2018-07-28T10:10:15.779Z,8.88
2018-07-28T10:12:43.742Z,11.45
2018-07-28T10:15:11.647Z,7.97
2018-07-28T10:17:39.634Z,8.60
2018-07-28T10:20:07.602Z,10.03
2018-07-28T10:22:35.427Z,12.33
2018-07-28T10:25:03.506Z,12.58
2018-07-28T10:27:31.542Z,8.55
2018-07-28T10:29:59.496Z,11.43
2018-07-28T10:32:27.531Z,12.10
2018-07-28T10:34:55.495Z,11.88
2018-07-28T10:37:23.484Z,11.40
2018-07-28T10:39:51.496Z,9.65
2018-07-28T10:42:19.520Z,13.03
2018-07-28T10:44:47.342Z,11.35
2018-07-28T10:47:15.313Z,8.78
2018-07-28T10:49:43.277Z,9.70
2018-07-28T10:52:11.244Z,8.95
2018-07-28T10:54:38.980Z,6.90
2018-07-28T10:57:07.002Z,7.28
2018-07-28T10:59:34.982Z,12.53
2018-07-28T11:02:02.786Z,7.15
2018-07-28T11:04:30.646Z,8.30
2018-07-28T11:06:58.648Z,7.35
2018-07-28T11:09:26.563Z,7.83
2018-07-28T11:11:54.452Z,7.50
2018-07-28T11:14:22.337Z,8.35
2018-07-28T11:16:50.219Z,6.90
2018-07-28T11:19:18.076Z,8.05
2018-07-28T11:21:46.057Z,7.17
2018-07-28T11:24:13.872Z,6.97
2018-07-28T11:26:41.823Z,7.50
2018-07-28T11:29:09.713Z,6.60
2018-07-28T11:31:48.899Z,7.62
2018-07-28T11:34:27.734Z,6.75
2018-07-28T11:37:06.814Z,7.17
2018-07-28T11:39:46.087Z,6.87
2018-07-28T11:42:25.177Z,6.37
2018-07-28T11:45:03.934Z,6.25
2018-07-28T11:47:31.741Z,7.20
2018-07-28T11:49:59.683Z,8.18
2018-07-28T11:52:27.610Z,6.65
2018-07-28T11:54:55.517Z,6.80
2018-07-28T11:57:23.330Z,6.53
2018-07-28T11:59:51.202Z,7.50
2018-07-28T12:02:19.074Z,6.92
2018-07-28T12:04:46.757Z,6.37
2018-07-28T12:07:14.593Z,7.67
2018-07-28T12:09:42.522Z,8.43
2018-07-28T12:12:10.350Z,5.90
2018-07-28T12:14:38.411Z,6.50
2018-07-28T12:17:06.669Z,6.83
2018-07-28T12:19:34.357Z,8.93
2018-07-28T12:22:01.983Z,8.55
2018-07-28T12:24:29.688Z,8.40
2018-07-28T12:26:57.416Z,6.83
2018-07-28T12:29:25.036Z,7.05
2018-07-28T12:31:52.687Z,8.40
2018-07-28T12:34:20.354Z,8.03
2018-07-28T12:36:48.043Z,8.55
2018-07-28T12:39:15.808Z,8.90
2018-07-28T12:41:43.553Z,8.48
2018-07-28T12:44:11.196Z,7.60
2018-07-28T12:46:38.915Z,8.15
2018-07-28T12:49:06.659Z,8.00
2018-07-28T12:51:34.287Z,7.42
2018-07-28T12:54:01.952Z,7.37
2018-07-28T12:56:29.631Z,8.63
2018-07-28T12:58:57.308Z,7.37
2018-07-28T13:01:24.955Z,10.53
2018-07-28T13:03:52.684Z,9.78
2018-07-28T13:06:20.316Z,8.30
2018-07-28T13:08:47.998Z,8.80
2018-07-28T13:11:15.773Z,9.00
2018-07-28T13:13:43.396Z,7.80
2018-07-28T13:16:11.063Z,8.50
2018-07-28T13:18:38.705Z,19.75
2018-07-28T13:21:06.708Z,9.68
2018-07-28T13:23:34.422Z,7.78
2018-07-28T13:26:02.126Z,7.72
2018-07-28T13:28:29.657Z,7.72
2018-07-28T13:30:57.317Z,7.58
2018-07-28T13:33:25.052Z,7.17
2018-07-28T13:35:52.949Z,7.15
2018-07-28T13:38:20.644Z,7.85
2018-07-28T13:40:48.254Z,7.67
2018-07-28T13:43:15.905Z,7.80
2018-07-28T13:45:43.541Z,6.75
2018-07-28T13:48:11.219Z,6.83
2018-07-28T13:50:38.894Z,6.33
2018-07-28T13:53:06.576Z,6.90
2018-07-28T13:55:34.230Z,7.28
2018-07-28T13:58:01.893Z,7.67
2018-07-28T14:00:29.548Z,6.78
2018-07-28T14:02:57.207Z,7.00
2018-07-28T14:05:24.863Z,6.62
2018-07-28T14:07:52.483Z,6.90
2018-07-28T14:10:20.182Z,7.62
2018-07-28T14:12:47.811Z,9.53
2018-07-28T14:15:15.503Z,7.10
2018-07-28T14:17:43.130Z,6.40
2018-07-28T14:20:10.890Z,8.35
2018-07-28T14:22:38.546Z,6.10
2018-07-28T14:25:06.690Z,6.12
2018-07-28T14:27:34.551Z,6.55
2018-07-28T14:30:02.237Z,7.17
2018-07-28T14:32:29.959Z,7.92
2018-07-28T14:34:57.753Z,7.20
2018-07-28T14:37:25.558Z,7.10
2018-07-28T14:39:53.269Z,6.72
2018-07-28T14:42:20.997Z,6.95
2018-07-28T14:44:48.630Z,6.62
2018-07-28T14:47:16.326Z,6.20
2018-07-28T14:49:43.955Z,6.92
2018-07-28T14:52:11.637Z,6.37
2018-07-28T14:54:39.273Z,5.72
2018-07-28T14:57:07.038Z,6.15
2018-07-28T14:59:34.676Z,6.30
2018-07-28T15:02:02.383Z,5.53
2018-07-28T15:04:30.034Z,5.80
2018-07-28T15:06:57.797Z,5.95
2018-07-28T15:09:25.484Z,5.85
2018-07-28T15:11:53.123Z,6.05
2018-07-28T15:14:20.840Z,5.78
2018-07-28T15:16:48.528Z,7.87
2018-07-28T15:19:16.168Z,5.83
2018-07-28T15:21:43.825Z,6.05
2018-07-28T15:24:11.443Z,5.30
2018-07-28T15:26:39.085Z,6.55
2018-07-28T15:29:06.701Z,5.17
2018-07-28T15:31:34.356Z,5.05
2018-07-28T15:34:01.991Z,7.28
2018-07-28T15:36:29.773Z,4.47
2018-07-28T15:38:57.536Z,5.00
2018-07-28T15:41:25.155Z,5.00
2018-07-28T15:43:52.803Z,5.25
2018-07-28T15:46:20.497Z,4.65
2018-07-28T15:48:48.144Z,4.65
2018-07-28T15:51:15.831Z,3.90
2018-07-28T15:53:43.618Z,3.67
2018-07-28T15:56:11.265Z,5.15
2018-07-28T15:58:38.875Z,4.67
2018-07-28T16:01:06.548Z,4.90
2018-07-28T16:03:34.186Z,4.55
2018-07-28T16:06:01.906Z,5.62
2018-07-28T16:08:29.504Z,7.72
2018-07-28T16:10:57.271Z,7.45
2018-07-28T16:13:25.006Z,5.67
2018-07-28T16:15:52.643Z,5.25
2018-07-28T16:18:20.308Z,4.12
2018-07-28T16:20:48.137Z,4.92
2018-07-28T16:23:15.782Z,5.10
2018-07-28T16:25:43.501Z,7.03
2018-07-28T16:28:11.179Z,5.30
2018-07-28T16:30:38.898Z,7.97
2018-07-28T16:33:07.280Z,5.35
2018-07-28T16:35:34.921Z,6.20
2018-07-28T16:38:02.605Z,8.20
2018-07-28T16:40:30.348Z,9.23
2018-07-28T16:42:58.040Z,9.15
2018-07-28T16:45:25.699Z,5.37
2018-07-28T16:47:53.375Z,7.42
2018-07-28T16:50:21.068Z,5.70
2018-07-28T16:52:48.724Z,6.23
2018-07-28T16:55:16.361Z,7.57
2018-07-28T16:57:43.962Z,7.40
2018-07-28T17:00:11.630Z,4.23
2018-07-28T17:02:39.634Z,5.00
2018-07-28T17:05:07.294Z,7.30
2018-07-28T17:07:34.931Z,7.07
2018-07-28T17:10:02.686Z,5.57
2018-07-28T17:12:30.292Z,3.50
2018-07-28T17:14:57.989Z,5.57
2018-07-28T17:17:25.533Z,3.73
2018-07-28T17:19:53.186Z,5.10
2018-07-28T17:22:20.896Z,7.23
2018-07-28T17:24:48.541Z,6.57
2018-07-28T17:27:16.235Z,6.57
2018-07-28T17:29:43.848Z,3.93
2018-07-28T17:32:11.521Z,7.77
2018-07-28T17:34:39.154Z,4.13
2018-07-28T17:37:06.953Z,5.00
2018-07-28T17:39:34.600Z,5.93
2018-07-28T17:42:02.108Z,8.67
2018-07-28T17:44:29.749Z,4.43
2018-07-28T17:46:57.511Z,5.57
2018-07-28T17:49:25.192Z,3.37
2018-07-28T17:51:52.871Z,4.83
2018-07-28T17:54:20.541Z,4.50
2018-07-28T17:56:48.180Z,7.20
2018-07-28T17:59:15.869Z,4.90
2018-07-28T18:01:43.651Z,6.97
2018-07-28T18:04:11.282Z,6.03
2018-07-28T18:06:38.989Z,6.97
2018-07-28T18:09:08.733Z,7.50
2018-07-28T18:11:36.457Z,5.10
2018-07-28T18:14:04.665Z,7.07
2018-07-28T18:16:32.395Z,5.70
2018-07-28T18:19:00.142Z,5.20
2018-07-28T18:21:27.876Z,3.60
2018-07-28T18:23:55.738Z,6.23
2018-07-28T18:26:23.376Z,6.47
2018-07-28T18:28:51.276Z,5.07
2018-07-28T18:31:18.937Z,5.90
2018-07-28T18:33:46.735Z,6.97
2018-07-28T18:36:14.469Z,8.40
2018-07-28T18:38:42.180Z,5.20
2018-07-28T18:41:10.217Z,7.07
2018-07-28T18:43:38.407Z,6.73
2018-07-28T18:46:06.372Z,9.10
2018-07-28T18:48:34.546Z,6.30
2018-07-28T18:51:02.510Z,5.30
2018-07-28T18:53:30.701Z,7.70
2018-07-28T18:55:58.746Z,7.27
2018-07-28T18:58:26.693Z,5.30
2018-07-28T19:00:54.695Z,6.33
2018-07-28T19:03:22.634Z,7.07
2018-07-28T19:05:50.877Z,6.57
2018-07-28T19:08:18.838Z,4.77
2018-07-28T19:10:46.903Z,4.43
2018-07-28T19:13:20.560Z,7.83
2018-07-28T19:15:48.356Z,7.57
2018-07-28T19:18:21.838Z,7.83
2018-07-28T19:20:50.181Z,5.77
2018-07-28T19:23:23.607Z,6.43
2018-07-28T19:25:51.362Z,6.40
2018-07-28T19:28:24.914Z,6.37
2018-07-28T19:30:52.899Z,7.23
2018-07-28T19:33:20.830Z,5.80
2018-07-28T19:35:54.416Z,6.50
2018-07-28T19:38:22.460Z,11.07
2018-07-28T19:40:50.396Z,4.33
2018-07-28T19:43:18.426Z,6.77
2018-07-28T19:45:46.336Z,8.27
2018-07-28T19:48:14.288Z,7.83
2018-07-28T19:50:42.341Z,8.07
2018-07-28T19:53:10.605Z,9.40
2018-07-28T19:55:38.530Z,9.27
2018-07-28T19:58:07.525Z,6.47
2018-07-28T20:00:35.397Z,8.37
2018-07-28T20:03:03.373Z,7.53
2018-07-28T20:05:31.684Z,11.07
2018-07-28T20:07:59.669Z,14.43
2018-07-28T20:10:27.549Z,14.90
2018-07-28T20:12:55.630Z,14.00
2018-07-28T20:15:23.617Z,14.57
2018-07-28T20:17:51.562Z,12.03
2018-07-28T20:20:19.532Z,13.30
2018-07-28T20:22:47.433Z,6.67
2018-07-28T20:25:15.354Z,9.07
2018-07-28T20:27:43.292Z,13.17
2018-07-28T20:30:11.151Z,11.87
2018-07-28T20:32:39.034Z,15.93
2018-07-28T20:35:06.931Z,11.40
2018-07-28T20:37:34.920Z,13.03
2018-07-28T20:40:02.866Z,13.23
2018-07-28T20:42:30.801Z,13.83
2018-07-28T20:44:58.730Z,14.30
2018-07-28T20:47:26.707Z,15.63
2018-07-28T20:49:54.677Z,10.00
2018-07-28T20:52:22.371Z,12.37
2018-07-28T20:54:50.425Z,11.50
2018-07-28T20:57:18.377Z,10.73
2018-07-28T20:59:46.047Z,17.67
2018-07-28T21:02:14.001Z,18.00
2018-07-28T21:04:41.937Z,12.80
2018-07-28T21:07:09.766Z,16.87
2018-07-28T21:09:37.791Z,12.30
2018-07-28T21:12:05.744Z,15.70
2018-07-28T21:14:33.633Z,11.67
2018-07-28T21:17:01.551Z,19.87
2018-07-28T21:19:29.476Z,14.67
2018-07-28T21:21:57.438Z,14.50
2018-07-28T21:24:25.353Z,8.60
2018-07-28T21:26:53.237Z,11.77
2018-07-28T21:29:21.301Z,10.10
2018-07-28T21:31:49.280Z,14.10
2018-07-28T21:34:17.165Z,7.70
2018-07-28T21:36:45.116Z,11.47
2018-07-28T21:39:13.045Z,14.53
2018-07-28T21:41:40.928Z,11.33
2018-07-28T21:44:08.813Z,9.33
2018-07-28T21:46:36.660Z,9.27
2018-07-28T21:49:04.715Z,11.53
2018-07-28T21:51:32.620Z,9.50
2018-07-28T21:54:00.575Z,7.03
2018-07-28T21:56:28.472Z,9.07
2018-07-28T21:58:56.633Z,12.97
2018-07-28T22:01:24.647Z,7.97
2018-07-28T22:03:52.543Z,7.60
2018-07-28T22:06:20.476Z,8.17
2018-07-28T22:08:48.451Z,12.97
2018-07-28T22:11:16.362Z,11.63
2018-07-28T22:13:44.316Z,11.80
2018-07-28T22:16:12.255Z,12.47
2018-07-28T22:18:40.201Z,11.00
2018-07-28T22:21:09.017Z,9.57
2018-07-28T22:23:36.941Z,7.27
2018-07-28T22:26:04.909Z,10.87
2018-07-28T22:28:32.872Z,14.03
2018-07-28T22:31:00.759Z,8.90
2018-07-28T22:33:28.762Z,7.40
2018-07-28T22:35:56.710Z,8.87
2018-07-28T22:38:24.666Z,13.20
2018-07-28T22:40:52.657Z,8.57
2018-07-28T22:43:20.569Z,13.87
2018-07-28T22:45:48.477Z,8.63
2018-07-28T22:48:16.411Z,10.77
2018-07-28T22:50:44.318Z,12.23
2018-07-28T22:53:12.326Z,10.33
2018-07-28T22:55:40.240Z,8.43
2018-07-28T22:58:08.158Z,7.17
2018-07-28T23:00:36.123Z,8.77
2018-07-28T23:03:04.056Z,8.00
2018-07-28T23:05:31.974Z,8.63
2018-07-28T23:08:00.174Z,8.23
2018-07-28T23:10:28.082Z,10.97
2018-07-28T23:12:55.960Z,8.73
2018-07-28T23:15:23.873Z,7.73
2018-07-28T23:17:51.785Z,13.43
2018-07-28T23:20:19.740Z,10.93
2018-07-28T23:22:47.698Z,10.23
2018-07-28T23:25:15.657Z,11.37
2018-07-28T23:27:43.468Z,8.30
2018-07-28T23:30:11.501Z,10.83
2018-07-28T23:32:39.885Z,13.27
2018-07-28T23:35:08.127Z,10.00
2018-07-28T23:37:36.145Z,9.70
2018-07-28T23:40:04.260Z,10.70
2018-07-28T23:42:32.167Z,10.30
2018-07-28T23:45:00.035Z,6.13
2018-07-28T23:47:27.927Z,9.00
2018-07-28T23:49:55.867Z,8.77
2018-07-28T23:52:23.721Z,12.77
2018-07-28T23:54:51.593Z,15.13
2018-07-28T23:57:19.505Z,10.63
2018-07-28T23:59:47.404Z,10.33
